createdAt,value
2018-06-11T00:00:20.075Z,22.43
2018-06-11T00:02:49.963Z,24.07
2018-06-11T00:05:20.070Z,27.80
2018-06-11T00:07:50.728Z,25.37
2018-06-11T00:10:21.021Z,26.43
2018-06-11T00:12:51.238Z,25.73
2018-06-11T00:15:20.943Z,23.53
2018-06-11T00:17:51.286Z,27.97
2018-06-11T00:20:21.659Z,23.40
2018-06-11T00:22:52.053Z,25.07
2018-06-11T00:25:22.412Z,22.90
2018-06-11T00:27:52.571Z,22.50
2018-06-11T00:30:22.809Z,23.27
2018-06-11T00:32:52.877Z,23.77
2018-06-11T00:35:22.788Z,23.87
2018-06-11T00:37:52.927Z,28.47
2018-06-11T00:40:24.184Z,25.03
2018-06-11T00:42:54.398Z,22.67
2018-06-11T00:45:24.531Z,23.10
2018-06-11T00:47:54.755Z,22.40
2018-06-11T00:50:24.855Z,23.07
2018-06-11T00:52:55.126Z,25.63
2018-06-11T00:55:25.078Z,28.03
2018-06-11T00:57:55.486Z,26.87
2018-06-11T01:00:25.868Z,26.57
2018-06-11T01:02:55.949Z,25.13
2018-06-11T01:05:26.118Z,26.03
2018-06-11T01:07:56.442Z,26.40
2018-06-11T01:10:26.467Z,28.33
2018-06-11T01:12:56.492Z,23.03
2018-06-11T01:15:26.412Z,24.03
2018-06-11T01:17:56.696Z,27.80
2018-06-11T01:20:27.425Z,25.47
2018-06-11T01:22:58.426Z,23.87
2018-06-11T01:25:29.513Z,24.97
2018-06-11T01:27:59.689Z,26.97
2018-06-11T01:30:29.628Z,30.30
2018-06-11T01:32:59.726Z,26.67
2018-06-11T01:35:29.630Z,26.83
2018-06-11T01:37:59.933Z,27.30
2018-06-11T01:40:29.973Z,24.70
2018-06-11T01:43:00.369Z,26.40
2018-06-11T01:45:30.386Z,26.70
2018-06-11T01:48:00.625Z,25.27
2018-06-11T01:50:30.793Z,25.07
2018-06-11T01:53:01.965Z,21.87
2018-06-11T01:55:32.275Z,27.23
2018-06-11T01:58:02.605Z,27.57
2018-06-11T02:00:32.448Z,31.90
2018-06-11T02:03:03.857Z,25.67
2018-06-11T02:05:33.778Z,24.37
2018-06-11T02:08:03.923Z,28.50
2018-06-11T02:10:34.159Z,30.03
2018-06-11T02:13:04.299Z,29.70
2018-06-11T02:15:34.645Z,27.50
2018-06-11T02:18:04.643Z,29.40
2018-06-11T02:20:34.584Z,31.93
2018-06-11T02:23:04.895Z,38.63
2018-06-11T02:25:35.726Z,40.23
2018-06-11T02:28:06.147Z,39.20
2018-06-11T02:31:02.516Z,34.87
2018-06-11T02:33:32.678Z,38.57
2018-06-11T02:36:02.732Z,41.27
2018-06-11T02:41:29.299Z,39.07
2018-06-11T02:43:59.755Z,34.03
2018-06-11T02:46:29.762Z,33.73
2018-06-11T02:48:59.932Z,35.57
2018-06-11T02:51:30.065Z,35.57
2018-06-11T02:54:00.216Z,43.57
2018-06-11T02:56:30.509Z,37.47
2018-06-11T02:59:00.559Z,35.03
2018-06-11T03:01:30.696Z,44.77
2018-06-11T03:04:17.908Z,40.67
2018-06-11T03:06:47.875Z,41.23
2018-06-11T03:09:17.864Z,47.57
2018-06-11T03:11:47.792Z,40.97
2018-06-11T03:14:17.932Z,42.33
2018-06-11T03:16:48.485Z,40.50
2018-06-11T03:19:18.696Z,43.93
2018-06-11T03:21:48.577Z,43.08
2018-06-11T03:24:18.469Z,44.33
2018-06-11T03:26:48.725Z,47.53
2018-06-11T03:29:18.995Z,44.73
2018-06-11T03:31:49.123Z,43.47
2018-06-11T03:34:25.004Z,40.47
2018-06-11T03:36:55.223Z,47.30
2018-06-11T03:39:25.246Z,44.23
2018-06-11T03:41:55.532Z,41.90
2018-06-11T03:44:25.682Z,47.17
2018-06-11T03:46:55.733Z,45.30
2018-06-11T03:49:26.152Z,43.17
2018-06-11T03:51:56.425Z,41.63
2018-06-11T03:54:27.474Z,42.60
2018-06-11T03:56:57.648Z,40.90
2018-06-11T03:59:27.539Z,39.70
2018-06-11T04:01:57.843Z,39.60
2018-06-11T04:04:28.179Z,42.60
2018-06-11T04:06:58.379Z,42.27
2018-06-11T04:09:28.218Z,43.03
2018-06-11T04:11:58.311Z,47.60
2018-06-11T04:14:28.280Z,45.23
2018-06-11T04:16:58.424Z,43.40
2018-06-11T04:19:28.566Z,37.47
2018-06-11T04:21:59.127Z,37.87
2018-06-11T04:24:29.510Z,37.57
2018-06-11T04:26:59.738Z,32.83
2018-06-11T04:29:30.204Z,34.70
2018-06-11T04:32:01.473Z,35.63
2018-06-11T04:34:31.360Z,33.30
2018-06-11T04:37:01.535Z,32.87
2018-06-11T04:39:31.761Z,33.97
2018-06-11T04:42:01.896Z,32.13
2018-06-11T04:44:32.035Z,34.97
2018-06-11T04:47:02.493Z,32.77
2018-06-11T04:49:32.677Z,30.80
2018-06-11T04:52:02.556Z,35.70
2018-06-11T04:54:33.551Z,36.43
2018-06-11T04:57:03.758Z,36.77
2018-06-11T04:59:33.938Z,38.73
2018-06-11T05:02:04.597Z,37.50
2018-06-11T05:04:34.939Z,36.17
2018-06-11T05:07:06.182Z,37.10
2018-06-11T05:09:36.291Z,40.87
2018-06-11T05:12:06.442Z,39.90
2018-06-11T05:14:37.565Z,39.20
2018-06-11T05:17:07.768Z,42.10
2018-06-11T05:19:37.767Z,41.90
2018-06-11T05:22:07.967Z,41.30
2018-06-11T05:24:37.895Z,41.53
2018-06-11T05:27:08.009Z,45.10
2018-06-11T05:29:38.038Z,42.47
2018-06-11T05:32:08.171Z,41.50
2018-06-11T05:34:38.438Z,47.40
2018-06-11T05:37:08.865Z,44.47
2018-06-11T05:39:39.178Z,42.20
2018-06-11T05:42:09.278Z,47.80
2018-06-11T05:44:39.472Z,42.93
2018-06-11T05:47:09.357Z,48.73
2018-06-11T05:49:39.791Z,47.30
2018-06-11T05:52:10.048Z,44.67
2018-06-11T05:54:40.540Z,41.67
2018-06-11T05:57:10.499Z,46.40
2018-06-11T05:59:40.676Z,46.17
2018-06-11T06:02:10.529Z,46.77
2018-06-11T06:04:40.660Z,52.00
2018-06-11T06:07:10.873Z,46.10
2018-06-11T06:09:45.022Z,58.13
2018-06-11T06:12:15.178Z,49.00
2018-06-11T06:14:45.403Z,51.27
2018-06-11T06:17:15.533Z,50.10
2018-06-11T06:19:45.797Z,56.63
2018-06-11T06:22:16.058Z,55.03
2018-06-11T06:24:46.153Z,61.73
2018-06-11T06:27:16.099Z,55.57
2018-06-11T06:29:46.393Z,60.23
2018-06-11T06:32:16.673Z,66.53
2018-06-11T06:34:46.619Z,63.00
2018-06-11T06:37:16.775Z,61.07
2018-06-11T06:39:46.975Z,63.87
2018-06-11T06:42:17.133Z,60.10
2018-06-11T06:44:47.422Z,65.90
2018-06-11T06:47:17.538Z,59.37
2018-06-11T06:49:47.715Z,62.60
2018-06-11T06:52:17.913Z,60.10
2018-06-11T06:54:48.028Z,60.00
2018-06-11T06:57:17.950Z,60.17
2018-06-11T06:59:48.272Z,54.73
2018-06-11T07:02:18.341Z,58.20
2018-06-11T07:04:48.424Z,56.07
2018-06-11T07:07:18.492Z,49.87
2018-06-11T07:09:48.597Z,55.47
2018-06-11T07:12:18.533Z,53.17
2018-06-11T07:14:48.696Z,58.97
2018-06-11T07:17:18.900Z,54.27
2018-06-11T07:19:49.186Z,54.23
2018-06-11T07:22:19.298Z,46.77
2018-06-11T07:24:49.439Z,48.40
2018-06-11T07:27:20.723Z,46.97
2018-06-11T07:29:50.793Z,40.90
2018-06-11T07:32:21.810Z,42.90
2018-06-11T07:34:52.023Z,43.13
2018-06-11T07:37:21.916Z,37.50
2018-06-11T07:39:52.217Z,34.37
2018-06-11T07:42:22.227Z,36.67
2018-06-11T07:44:52.465Z,34.70
2018-06-11T07:47:22.599Z,33.10
2018-06-11T07:49:52.920Z,36.23
2018-06-11T07:52:23.007Z,33.47
2018-06-11T07:54:54.100Z,34.93
2018-06-11T07:57:24.211Z,34.53
2018-06-11T07:59:55.448Z,31.87
2018-06-11T08:02:25.504Z,37.57
2018-06-11T08:04:55.693Z,33.07
2018-06-11T08:07:25.929Z,32.27
2018-06-11T08:09:56.246Z,32.17
2018-06-11T08:12:26.268Z,35.10
2018-06-11T08:14:56.340Z,31.23
2018-06-11T08:17:26.447Z,35.77
2018-06-11T08:19:56.607Z,34.47
2018-06-11T08:22:26.802Z,33.63
2018-06-11T08:24:57.001Z,34.57
2018-06-11T08:27:27.288Z,31.90
2018-06-11T08:29:57.480Z,31.03
2018-06-11T08:32:27.790Z,32.30
2018-06-11T08:34:58.226Z,29.13
2018-06-11T08:37:28.303Z,27.23
2018-06-11T08:39:58.313Z,31.07
2018-06-11T08:42:28.585Z,29.43
2018-06-11T08:44:58.580Z,26.17
2018-06-11T08:47:28.583Z,30.27
2018-06-11T08:49:58.770Z,25.23
2018-06-11T08:52:29.108Z,23.00
2018-06-11T08:54:59.279Z,23.30
2018-06-11T08:57:29.494Z,27.93
2018-06-11T08:59:59.684Z,27.23
2018-06-11T09:02:29.642Z,25.73
2018-06-11T09:04:59.696Z,25.30
2018-06-11T09:07:29.999Z,25.60
2018-06-11T09:10:00.134Z,26.83
2018-06-11T09:12:30.436Z,25.13
2018-06-11T09:15:00.668Z,24.77
2018-06-11T09:17:30.820Z,24.93
2018-06-11T09:20:00.995Z,24.47
2018-06-11T09:22:32.282Z,29.57
2018-06-11T09:25:02.444Z,28.30
2018-06-11T09:27:32.641Z,29.57
2018-06-11T09:30:02.637Z,26.73
2018-06-11T09:32:32.941Z,25.73
2018-06-11T09:37:37.906Z,24.23
2018-06-11T09:40:09.016Z,23.73
2018-06-11T09:42:39.059Z,27.33
2018-06-11T09:45:08.771Z,22.97
2018-06-11T09:47:38.721Z,20.47
2018-06-11T09:50:08.879Z,20.37
2018-06-11T09:52:39.139Z,20.50
2018-06-11T09:55:09.607Z,17.50
2018-06-11T09:57:40.014Z,18.70
2018-06-11T10:00:13.906Z,18.00
2018-06-11T10:02:43.982Z,16.60
2018-06-11T10:05:15.019Z,18.17
2018-06-11T10:07:45.066Z,18.03
2018-06-11T10:10:15.364Z,19.03
2018-06-11T10:12:45.445Z,18.63
2018-06-11T10:15:15.398Z,18.67
2018-06-11T10:17:45.980Z,20.50
2018-06-11T10:20:16.201Z,19.33
2018-06-11T10:22:46.511Z,20.03
2018-06-11T10:25:16.594Z,20.13
2018-06-11T10:27:46.805Z,19.90
2018-06-11T10:30:17.004Z,19.90
2018-06-11T10:32:47.044Z,21.33
2018-06-11T10:35:17.118Z,20.03
2018-06-11T10:37:47.295Z,19.03
2018-06-11T10:40:17.426Z,18.63
2018-06-11T10:42:47.459Z,19.30
2018-06-11T10:45:17.633Z,19.07
2018-06-11T10:47:47.867Z,18.03
2018-06-11T10:50:18.670Z,18.23
2018-06-11T10:52:48.665Z,17.07
2018-06-11T10:55:18.881Z,19.53
2018-06-11T10:57:48.815Z,18.37
2018-06-11T11:00:18.905Z,20.80
2018-06-11T11:02:48.774Z,17.67
2018-06-11T11:05:18.995Z,17.67
2018-06-11T11:07:49.319Z,17.23
2018-06-11T11:10:19.708Z,15.93
2018-06-11T11:12:49.846Z,15.13
2018-06-11T11:15:21.068Z,17.00
2018-06-11T11:17:51.368Z,16.00
2018-06-11T11:20:21.741Z,16.67
2018-06-11T11:22:51.990Z,16.53
2018-06-11T11:25:22.060Z,15.60
2018-06-11T11:27:52.712Z,16.30
2018-06-11T11:30:22.994Z,17.80
2018-06-11T11:32:53.237Z,14.33
2018-06-11T11:35:23.574Z,13.40
2018-06-11T11:37:53.907Z,13.47
2018-06-11T11:40:24.239Z,12.80
2018-06-11T11:42:54.220Z,15.80
2018-06-11T11:45:24.412Z,13.70
2018-06-11T11:47:54.452Z,13.73
2018-06-11T11:50:24.841Z,11.87
2018-06-11T11:52:55.851Z,13.00
2018-06-11T11:55:26.020Z,14.67
2018-06-11T11:57:55.954Z,14.00
2018-06-11T12:00:26.455Z,12.50
2018-06-11T12:02:57.497Z,11.67
2018-06-11T12:05:27.971Z,11.33
2018-06-11T12:07:58.169Z,11.40
2018-06-11T12:10:28.077Z,11.40
2018-06-11T12:12:58.259Z,10.90
2018-06-11T12:15:28.170Z,12.90
2018-06-11T12:17:58.252Z,11.90
2018-06-11T12:20:29.139Z,10.23
2018-06-11T12:22:59.153Z,11.40
2018-06-11T12:25:29.265Z,11.33
2018-06-11T12:27:59.465Z,12.33
2018-06-11T12:30:29.723Z,11.08
2018-06-11T12:32:59.788Z,11.67
2018-06-11T12:35:30.008Z,11.10
2018-06-11T12:38:00.285Z,11.67
2018-06-11T12:40:30.423Z,11.90
2018-06-11T12:43:00.649Z,11.87
2018-06-11T12:45:31.061Z,11.33
2018-06-11T12:48:00.953Z,11.80
2018-06-11T12:50:32.013Z,10.53
2018-06-11T12:53:02.206Z,14.77
2018-06-11T12:55:32.588Z,13.83
2018-06-11T12:58:07.299Z,11.60
2018-06-11T13:00:37.596Z,11.13
2018-06-11T13:03:07.949Z,13.30
2018-06-11T13:05:38.113Z,10.73
2018-06-11T13:08:08.046Z,17.00
2018-06-11T13:10:38.320Z,11.10
2018-06-11T13:13:08.581Z,9.93
2018-06-11T13:15:38.792Z,10.30
2018-06-11T13:18:08.805Z,10.73
2018-06-11T13:20:38.972Z,10.00
2018-06-11T13:23:09.285Z,14.80
2018-06-11T13:25:39.624Z,11.33
2018-06-11T13:28:09.896Z,10.53
2018-06-11T13:30:39.979Z,9.13
2018-06-11T13:33:10.209Z,9.73
2018-06-11T13:35:40.496Z,9.00
2018-06-11T13:38:10.951Z,12.20
2018-06-11T13:40:41.052Z,9.37
2018-06-11T13:43:11.053Z,8.80
2018-06-11T13:45:41.571Z,9.77
2018-06-11T13:48:11.571Z,9.43
2018-06-11T13:50:41.692Z,9.37
2018-06-11T13:53:12.212Z,8.60
2018-06-11T13:55:42.442Z,9.07
2018-06-11T13:58:12.466Z,9.40
2018-06-11T14:00:42.495Z,10.67
2018-06-11T14:03:12.526Z,9.53
2018-06-11T14:05:42.713Z,10.93
2018-06-11T14:08:13.099Z,12.80
2018-06-11T14:10:43.270Z,10.53
2018-06-11T14:13:13.518Z,8.20
2018-06-11T14:15:43.698Z,9.13
2018-06-11T14:18:13.892Z,9.80
2018-06-11T14:20:44.143Z,10.17
2018-06-11T14:23:15.476Z,9.33
2018-06-11T14:25:45.363Z,9.60
2018-06-11T14:28:15.604Z,8.50
2018-06-11T14:30:45.758Z,9.80
2018-06-11T14:33:15.797Z,10.80
2018-06-11T14:35:45.949Z,9.23
2018-06-11T14:38:16.319Z,9.73
2018-06-11T14:40:46.694Z,9.00
2018-06-11T14:43:17.948Z,10.87
2018-06-11T14:45:47.980Z,13.55
2018-06-11T14:48:18.430Z,9.50
2018-06-11T14:50:48.462Z,9.73
2018-06-11T14:53:18.771Z,9.00
2018-06-11T14:55:48.892Z,8.50
2018-06-11T14:58:19.161Z,8.93
2018-06-11T15:00:49.387Z,10.27
2018-06-11T15:03:19.529Z,16.17
2018-06-11T15:05:49.825Z,10.07
2018-06-11T15:08:19.901Z,9.07
2018-06-11T15:10:50.242Z,9.80
2018-06-11T15:13:20.349Z,10.53
2018-06-11T15:15:50.835Z,9.83
2018-06-11T15:18:22.092Z,10.27
2018-06-11T15:20:52.141Z,11.33
2018-06-11T15:23:22.235Z,11.23
2018-06-11T15:25:52.378Z,9.23
2018-06-11T15:28:22.711Z,9.30
2018-06-11T15:30:52.957Z,13.93
2018-06-11T15:33:23.135Z,8.53
2018-06-11T15:35:53.419Z,10.45
2018-06-11T15:38:24.029Z,9.05
2018-06-11T15:40:54.410Z,8.53
2018-06-11T15:43:24.556Z,8.03
2018-06-11T15:45:54.645Z,9.58
2018-06-11T15:48:24.774Z,9.35
2018-06-11T15:50:55.085Z,8.43
2018-06-11T15:53:25.245Z,9.10
2018-06-11T15:55:55.416Z,8.05
2018-06-11T15:58:25.708Z,8.20
2018-06-11T16:00:56.025Z,8.10
2018-06-11T16:03:26.325Z,8.78
2018-06-11T16:05:56.521Z,8.80
2018-06-11T16:08:26.441Z,8.18
2018-06-11T16:10:56.802Z,12.20
2018-06-11T16:13:26.973Z,7.97
2018-06-11T16:15:57.177Z,11.28
2018-06-11T16:18:27.377Z,8.38
2018-06-11T16:20:57.684Z,8.03
2018-06-11T16:23:27.936Z,10.98
2018-06-11T16:25:57.932Z,7.62
2018-06-11T16:28:27.901Z,8.25
2018-06-11T16:30:58.037Z,8.55
2018-06-11T16:33:28.328Z,8.48
2018-06-11T16:38:35.011Z,8.40
2018-06-11T16:41:05.510Z,8.53
2018-06-11T16:43:35.870Z,9.15
2018-06-11T16:46:06.039Z,9.08
2018-06-11T16:48:36.197Z,9.50
2018-06-11T16:51:07.011Z,9.93
2018-06-11T16:53:37.489Z,9.00
2018-06-11T16:56:07.707Z,9.60
2018-06-11T16:58:37.859Z,8.85
2018-06-11T17:01:07.566Z,9.68
2018-06-11T17:03:37.900Z,8.63
2018-06-11T17:06:07.979Z,8.63
2018-06-11T17:08:38.510Z,9.53
2018-06-11T17:11:08.822Z,10.95
2018-06-11T17:13:39.114Z,9.73
2018-06-11T17:16:09.342Z,9.45
2018-06-11T17:18:39.953Z,9.50
2018-06-11T17:21:10.315Z,9.85
2018-06-11T17:23:40.478Z,9.95
2018-06-11T17:26:10.758Z,10.00
2018-06-11T17:28:41.118Z,11.03
2018-06-11T17:31:11.528Z,13.33
2018-06-11T17:33:41.653Z,12.77
2018-06-11T17:36:12.623Z,9.97
2018-06-11T17:38:42.732Z,10.93
2018-06-11T17:41:12.862Z,13.00
2018-06-11T17:43:42.930Z,10.10
2018-06-11T17:46:13.143Z,11.23
2018-06-11T17:48:43.389Z,10.23
2018-06-11T17:51:13.447Z,10.30
2018-06-11T17:53:43.761Z,10.90
2018-06-11T17:56:13.858Z,18.03
2018-06-11T17:58:44.196Z,11.60
2018-06-11T18:01:14.262Z,15.20
2018-06-11T18:03:44.509Z,12.50
2018-06-11T18:06:14.714Z,11.57
2018-06-11T18:08:45.021Z,16.10
2018-06-11T18:11:15.286Z,14.87
2018-06-11T18:13:45.547Z,18.27
2018-06-11T18:16:15.635Z,16.43
2018-06-11T18:18:45.795Z,13.07
2018-06-11T18:21:16.098Z,13.27
2018-06-11T18:23:47.116Z,13.17
2018-06-11T18:26:17.642Z,12.50
2018-06-11T18:28:47.988Z,13.33
2018-06-11T18:31:18.273Z,13.87
2018-06-11T18:33:48.459Z,21.97
2018-06-11T18:36:18.476Z,17.43
2018-06-11T18:38:48.622Z,22.57
2018-06-11T18:41:18.660Z,16.37
2018-06-11T18:43:48.936Z,15.53
2018-06-11T18:46:19.063Z,15.37
2018-06-11T18:48:49.347Z,17.93
2018-06-11T18:51:19.666Z,13.23
2018-06-11T18:53:49.846Z,13.53
2018-06-11T18:56:20.022Z,18.80
2018-06-11T18:58:50.265Z,13.10
2018-06-11T19:01:20.532Z,14.20
2018-06-11T19:03:50.664Z,16.03
2018-06-11T19:06:20.900Z,14.23
2018-06-11T19:08:51.313Z,12.53
2018-06-11T19:11:21.562Z,16.03
2018-06-11T19:13:52.766Z,14.13
2018-06-11T19:16:22.800Z,15.83
2018-06-11T19:18:53.040Z,15.60
2018-06-11T19:21:23.195Z,14.37
2018-06-11T19:23:53.566Z,19.23
2018-06-11T19:26:23.836Z,18.60
2018-06-11T19:28:54.124Z,21.33
2018-06-11T19:31:24.347Z,18.13
2018-06-11T19:33:54.460Z,15.60
2018-06-11T19:36:24.735Z,15.43
2018-06-11T19:38:55.107Z,16.83
2018-06-11T19:41:25.483Z,16.20
2018-06-11T19:43:55.799Z,17.70
2018-06-11T19:46:26.043Z,16.30
2018-06-11T19:48:56.226Z,21.17
2018-06-11T19:51:26.509Z,21.87
2018-06-11T19:53:56.417Z,20.10
2018-06-11T19:56:26.902Z,22.57
2018-06-11T19:58:57.090Z,18.80
2018-06-11T20:01:27.180Z,21.13
2018-06-11T20:03:58.301Z,19.43
2018-06-11T20:06:28.700Z,20.47
2018-06-11T20:08:58.520Z,18.97
2018-06-11T20:11:28.693Z,19.52
2018-06-11T20:13:58.672Z,19.07
2018-06-11T20:16:28.765Z,18.17
2018-06-11T20:18:59.024Z,20.37
2018-06-11T20:21:29.314Z,21.43
2018-06-11T20:23:59.354Z,21.23
2018-06-11T20:26:29.590Z,20.60
2018-06-11T20:28:59.902Z,24.23
2018-06-11T20:31:30.199Z,21.80
2018-06-11T20:34:00.346Z,24.23
2018-06-11T20:36:30.722Z,21.23
2018-06-11T20:39:00.836Z,21.30
2018-06-11T20:41:31.021Z,27.73
2018-06-11T20:44:01.166Z,24.60
2018-06-11T20:46:31.495Z,23.83
2018-06-11T20:49:01.857Z,23.37
2018-06-11T20:51:32.130Z,23.53
2018-06-11T20:54:02.209Z,21.60
2018-06-11T20:56:32.514Z,21.90
2018-06-11T20:59:03.490Z,25.73
2018-06-11T21:01:33.953Z,21.17
2018-06-11T21:04:03.993Z,25.10
2018-06-11T21:06:34.155Z,20.70
2018-06-11T21:09:05.210Z,19.07
2018-06-11T21:11:35.449Z,21.93
2018-06-11T21:14:05.558Z,22.87
2018-06-11T21:16:35.848Z,23.05
2018-06-11T21:19:06.012Z,25.07
2018-06-11T21:21:36.364Z,22.40
2018-06-11T21:24:06.725Z,21.33
2018-06-11T21:26:36.968Z,23.95
2018-06-11T21:29:07.115Z,24.03
2018-06-11T21:31:37.380Z,24.40
2018-06-11T21:34:07.311Z,26.27
2018-06-11T21:36:37.434Z,24.03
2018-06-11T21:39:09.656Z,26.40
2018-06-11T21:41:40.013Z,26.50
2018-06-11T21:44:10.285Z,26.97
2018-06-11T21:46:40.627Z,25.30
2018-06-11T21:49:10.568Z,26.20
2018-06-11T21:51:40.759Z,24.90
2018-06-11T21:54:10.600Z,25.60
2018-06-11T21:56:40.770Z,28.60
2018-06-11T21:59:11.872Z,26.83
2018-06-11T22:01:42.192Z,31.67
2018-06-11T22:04:12.087Z,27.03
2018-06-11T22:06:42.686Z,27.37
2018-06-11T22:09:12.713Z,27.40
2018-06-11T22:11:42.853Z,27.07
2018-06-11T22:14:13.445Z,25.40
2018-06-11T22:16:43.519Z,26.47
2018-06-11T22:19:13.515Z,28.47
2018-06-11T22:21:43.749Z,27.37
2018-06-11T22:24:13.738Z,27.83
2018-06-11T22:26:43.842Z,32.80
2018-06-11T22:29:14.081Z,27.27
2018-06-11T22:31:44.171Z,30.07
2018-06-11T22:34:14.380Z,30.27
2018-06-11T22:36:44.652Z,32.43
2018-06-11T22:39:14.908Z,32.60
2018-06-11T22:41:45.017Z,32.00
2018-06-11T22:44:15.218Z,31.17
2018-06-11T22:46:45.111Z,32.83
2018-06-11T22:49:15.318Z,33.57
2018-06-11T22:51:45.426Z,33.70
2018-06-11T22:54:15.449Z,35.37
2018-06-11T22:56:45.682Z,32.67
2018-06-11T22:59:15.989Z,33.03
2018-06-11T23:01:46.392Z,33.00
2018-06-11T23:04:16.640Z,36.20
2018-06-11T23:06:46.801Z,38.23
2018-06-11T23:09:16.916Z,37.50
2018-06-11T23:11:46.983Z,33.97
2018-06-11T23:14:16.908Z,32.73
2018-06-11T23:16:46.976Z,32.77
2018-06-11T23:19:17.070Z,32.27
2018-06-11T23:21:47.100Z,33.53
2018-06-11T23:24:17.179Z,33.50
2018-06-11T23:26:47.161Z,35.30
2018-06-11T23:29:17.152Z,33.27
2018-06-11T23:31:47.077Z,34.43
2018-06-11T23:34:18.094Z,34.57
2018-06-11T23:36:48.436Z,33.73
2018-06-11T23:39:18.383Z,33.97
2018-06-11T23:41:48.743Z,32.73
2018-06-11T23:44:18.933Z,32.27
2018-06-11T23:46:48.929Z,31.63
2018-06-11T23:49:19.058Z,32.37
2018-06-11T23:51:49.421Z,30.57
2018-06-11T23:54:19.766Z,31.17
2018-06-11T23:56:49.615Z,31.77
2018-06-11T23:59:19.749Z,32.77
